PWSweather.com
Personal Weather Stations
Station Observations
ISARDEGN48
BittiIT 08021

BittiIT 08021

Lat: 40.4805, Lon: 9.3887

Elevation: 1804

Station Type: La Crosse WS2355

http://meteobitti.altervista.org

High Low Average
Temperature 64.2°F17.9°C 53.4°F11.9°C 58.9°F14.9°C
Dew Point 56.1°F13.4°C 47.6°F8.7°C 52.1°F11.2°C
Winds 33.1 mph 53.3 kmh Calm Calm 11.0 mph S17.7 kmh S
Wind Gusts 38.3 mph61.6 kmh 10.5 mph16.9 kmh 20.0 mph32.2 kmh
Humidity 88% 63% 79%
Pressure 29.62 in1003.0 mb 29.42 in996.3 mb -
Precipitation 0.06 in1.5 mm - -
Hour Temp Dew Point Humidity Winds Wind Gusts Pressure Precip Precip Rate Daily Precip Total
12:00 AM 54.1°F12.3°C 47.8°F8.8°C 79% 2.9 mph E4.7 kmh E 18.3 mph29.5 kmh 29.43 in996.6 mb 0.00 in0.0 mm 0.00 in0.0 mm 0.00 in0.0 mm
12:05 AM 54.3°F12.4°C 47.9°F8.8°C 79% 10.5 mph E16.9 kmh E 19.7 mph31.7 kmh 29.43 in996.6 mb 0.00 in0.0 mm 0.00 in0.0 mm 0.00 in0.0 mm
12:10 AM 54.3°F12.4°C 47.9°F8.8°C 79% 1.6 mph E2.6 kmh E 19.7 mph31.7 kmh 29.43 in996.6 mb 0.00 in0.0 mm 0.00 in0.0 mm 0.00 in0.0 mm
12:15 AM 54.3°F12.4°C 47.9°F8.8°C 79% 8.7 mph E14.0 kmh E 18.3 mph29.5 kmh 29.43 in996.6 mb 0.00 in0.0 mm 0.00 in0.0 mm 0.00 in0.0 mm
12:25 AM 54.3°F12.4°C 47.9°F8.8°C 79% 18.3 mph E29.5 kmh E 21.7 mph34.9 kmh 29.43 in996.6 mb 0.00 in0.0 mm 0.00 in0.0 mm 0.00 in0.0 mm
12:30 AM 54.5°F12.5°C 47.8°F8.8°C 78% 8.1 mph ENE13.0 kmh ENE 21.7 mph34.9 kmh 29.43 in996.6 mb 0.00 in0.0 mm 0.00 in0.0 mm 0.00 in0.0 mm
12:35 AM 54.9°F12.7°C 48.1°F8.9°C 78% 18.3 mph NE29.5 kmh NE 23.0 mph37.0 kmh 29.43 in996.6 mb 0.00 in0.0 mm 0.00 in0.0 mm 0.00 in0.0 mm
12:40 AM 54.9°F12.7°C 47.8°F8.8°C 77% 33.1 mph NE53.3 kmh NE 38.3 mph61.6 kmh 29.43 in996.6 mb 0.00 in0.0 mm 0.00 in0.0 mm 0.00 in0.0 mm
12:45 AM 55.0°F12.8°C 47.9°F8.8°C 77% 22.6 mph NE36.4 kmh NE 38.3 mph61.6 kmh 29.43 in996.6 mb 0.00 in0.0 mm 0.00 in0.0 mm 0.00 in0.0 mm
12:50 AM 54.7°F12.6°C 47.6°F8.7°C 77% 9.6 mph NE15.4 kmh NE 32.0 mph51.5 kmh 29.43 in996.6 mb 0.00 in0.0 mm 0.00 in0.0 mm 0.00 in0.0 mm
01:00 AM 54.9°F12.7°C 47.8°F8.8°C 77% 16.6 mph ENE26.7 kmh ENE 27.5 mph44.3 kmh 29.43 in996.6 mb 0.00 in0.0 mm 0.00 in0.0 mm 0.00 in0.0 mm
01:05 AM 54.9°F12.7°C 47.8°F8.8°C 77% 18.3 mph NE29.5 kmh NE 27.3 mph43.9 kmh 29.43 in996.6 mb 0.00 in0.0 mm 0.00 in0.0 mm 0.00 in0.0 mm
01:10 AM 54.9°F12.7°C 47.8°F8.8°C 77% 19.5 mph NE31.4 kmh NE 31.8 mph51.2 kmh 29.43 in996.6 mb 0.00 in0.0 mm 0.00 in0.0 mm 0.00 in0.0 mm
01:15 AM 54.9°F12.7°C 47.8°F8.8°C 77% 25.1 mph NE40.4 kmh NE 31.8 mph51.2 kmh 29.43 in996.6 mb 0.00 in0.0 mm 0.00 in0.0 mm 0.00 in0.0 mm
01:20 AM 54.7°F12.6°C 47.6°F8.7°C 77% 18.8 mph NE30.3 kmh NE 25.5 mph41.0 kmh 29.43 in996.6 mb 0.00 in0.0 mm 0.00 in0.0 mm 0.00 in0.0 mm
01:25 AM 54.7°F12.6°C 47.6°F8.7°C 77% 14.1 mph NE22.7 kmh NE 25.5 mph41.0 kmh 29.43 in996.6 mb 0.00 in0.0 mm 0.00 in0.0 mm 0.00 in0.0 mm
01:30 AM 54.7°F12.6°C 47.6°F8.7°C 77% 18.3 mph ENE29.5 kmh ENE 23.3 mph37.5 kmh 29.42 in996.3 mb 0.00 in0.0 mm 0.00 in0.0 mm 0.00 in0.0 mm
01:35 AM 54.7°F12.6°C 47.6°F8.7°C 77% 14.3 mph ENE23.0 kmh ENE 23.3 mph37.5 kmh 29.43 in996.6 mb 0.00 in0.0 mm 0.00 in0.0 mm 0.00 in0.0 mm
01:40 AM 54.7°F12.6°C 47.6°F8.7°C 77% 19.5 mph ENE31.4 kmh ENE 26.8 mph43.1 kmh 29.43 in996.6 mb 0.00 in0.0 mm 0.00 in0.0 mm 0.00 in0.0 mm
01:45 AM 54.7°F12.6°C 47.6°F8.7°C 77% 8.7 mph ENE14.0 kmh ENE 26.8 mph43.1 kmh 29.43 in996.6 mb 0.00 in0.0 mm 0.00 in0.0 mm 0.00 in0.0 mm
01:50 AM 54.9°F12.7°C 47.8°F8.8°C 77% 4.0 mph NE6.4 kmh NE 27.7 mph44.6 kmh 29.43 in996.6 mb 0.00 in0.0 mm 0.00 in0.0 mm 0.00 in0.0 mm
01:55 AM 54.9°F12.7°C 47.8°F8.8°C 77% 11.4 mph ENE18.3 kmh ENE 27.7 mph44.6 kmh 29.43 in996.6 mb 0.00 in0.0 mm 0.00 in0.0 mm 0.00 in0.0 mm
02:00 AM 54.7°F12.6°C 47.9°F8.8°C 78% 7.4 mph E11.9 kmh E 16.8 mph27.0 kmh 29.43 in996.6 mb 0.00 in0.0 mm 0.00 in0.0 mm 0.00 in0.0 mm
02:05 AM 54.7°F12.6°C 47.9°F8.8°C 78% 4.7 mph E7.6 kmh E 14.3 mph23.0 kmh 29.43 in996.6 mb 0.00 in0.0 mm 0.00 in0.0 mm 0.00 in0.0 mm
02:10 AM 54.5°F12.5°C 48.1°F8.9°C 79% 6.7 mph E10.8 kmh E 17.2 mph27.7 kmh 29.43 in996.6 mb 0.00 in0.0 mm 0.00 in0.0 mm 0.00 in0.0 mm
02:15 AM 54.3°F12.4°C 48.6°F9.2°C 81% 3.4 mph SE5.5 kmh SE 17.2 mph27.7 kmh 29.43 in996.6 mb 0.00 in0.0 mm 0.00 in0.0 mm 0.00 in0.0 mm
02:20 AM 54.0°F12.2°C 48.3°F9.1°C 81% 11.0 mph SE17.7 kmh SE 14.3 mph23.0 kmh 29.44 in997.0 mb 0.00 in0.0 mm 0.00 in0.0 mm 0.00 in0.0 mm
02:25 AM 54.0°F12.2°C 48.3°F9.1°C 81% 4.5 mph E7.2 kmh E 14.1 mph22.7 kmh 29.45 in997.3 mb 0.00 in0.0 mm 0.00 in0.0 mm 0.00 in0.0 mm
02:30 AM 54.1°F12.3°C 48.8°F9.3°C 82% 9.6 mph ESE15.4 kmh ESE 14.1 mph22.7 kmh 29.46 in997.6 mb 0.00 in0.0 mm 0.00 in0.0 mm 0.00 in0.0 mm
02:35 AM 54.0°F12.2°C 48.6°F9.2°C 82% 8.5 mph E13.7 kmh E 13.0 mph20.9 kmh 29.46 in997.6 mb 0.00 in0.0 mm 0.00 in0.0 mm 0.00 in0.0 mm
02:40 AM 53.8°F12.1°C 48.4°F9.1°C 82% 4.7 mph E7.6 kmh E 11.4 mph18.3 kmh 29.47 in998.0 mb 0.00 in0.0 mm 0.00 in0.0 mm 0.00 in0.0 mm
02:45 AM 53.8°F12.1°C 48.4°F9.1°C 82% 5.8 mph ESE9.3 kmh ESE 16.3 mph26.2 kmh 29.47 in998.0 mb 0.00 in0.0 mm 0.00 in0.0 mm 0.00 in0.0 mm
02:50 AM 54.0°F12.2°C 48.6°F9.2°C 82% 4.5 mph E7.2 kmh E 16.3 mph26.2 kmh 29.47 in998.0 mb 0.00 in0.0 mm 0.00 in0.0 mm 0.00 in0.0 mm
02:55 AM 54.0°F12.2°C 48.6°F9.2°C 82% 13.6 mph E21.9 kmh E 13.6 mph21.9 kmh 29.47 in998.0 mb 0.00 in0.0 mm 0.00 in0.0 mm 0.00 in0.0 mm
03:00 AM 54.1°F12.3°C 48.8°F9.3°C 82% 2.0 mph ESE3.2 kmh ESE 13.6 mph21.9 kmh 29.48 in998.3 mb 0.00 in0.0 mm 0.00 in0.0 mm 0.00 in0.0 mm
03:05 AM 54.1°F12.3°C 48.8°F9.3°C 82% 7.4 mph E11.9 kmh E 10.7 mph17.2 kmh 29.48 in998.3 mb 0.00 in0.0 mm 0.00 in0.0 mm 0.00 in0.0 mm
03:10 AM 54.1°F12.3°C 48.8°F9.3°C 82% 6.9 mph E11.1 kmh E 15.9 mph25.6 kmh 29.49 in998.6 mb 0.00 in0.0 mm 0.00 in0.0 mm 0.00 in0.0 mm
03:15 AM 54.1°F12.3°C 49.1°F9.5°C 83% Calm Calm 15.9 mph25.6 kmh 29.50 in999.0 mb 0.00 in0.0 mm 0.00 in0.0 mm 0.00 in0.0 mm
03:20 AM 54.0°F12.2°C 49.2°F9.6°C 84% 5.4 mph ESE8.7 kmh ESE 15.0 mph24.1 kmh 29.49 in998.6 mb 0.00 in0.0 mm 0.00 in0.0 mm 0.00 in0.0 mm
03:25 AM 54.0°F12.2°C 49.2°F9.6°C 84% Calm Calm 15.0 mph24.1 kmh 29.49 in998.6 mb 0.00 in0.0 mm 0.00 in0.0 mm 0.00 in0.0 mm
03:30 AM 54.0°F12.2°C 49.2°F9.6°C 84% 1.6 mph SE2.6 kmh SE 10.5 mph16.9 kmh 29.49 in998.6 mb 0.00 in0.0 mm 0.00 in0.0 mm 0.00 in0.0 mm
03:35 AM 54.1°F12.3°C 49.4°F9.7°C 84% 4.9 mph ENE7.9 kmh ENE 10.5 mph16.9 kmh 29.48 in998.3 mb 0.00 in0.0 mm 0.00 in0.0 mm 0.00 in0.0 mm
03:40 AM 54.3°F12.4°C 49.5°F9.7°C 84% 2.5 mph ESE4.0 kmh ESE 11.9 mph19.2 kmh 29.49 in998.6 mb 0.00 in0.0 mm 0.00 in0.0 mm 0.00 in0.0 mm
03:45 AM 54.1°F12.3°C 49.4°F9.7°C 84% 1.6 mph SE2.6 kmh SE 12.5 mph20.1 kmh 29.50 in999.0 mb 0.00 in0.0 mm 0.00 in0.0 mm 0.00 in0.0 mm
03:50 AM 54.1°F12.3°C 49.7°F9.8°C 85% 14.5 mph S23.3 kmh S 17.4 mph28.0 kmh 29.50 in999.0 mb 0.02 in0.5 mm 0.24 in6.1 mm 0.02 in0.5 mm
03:55 AM 54.1°F12.3°C 50.0°F10.0°C 86% 16.6 mph S26.7 kmh S 21.0 mph33.8 kmh 29.51 in999.3 mb 0.02 in0.5 mm 0.00 in0.0 mm 0.02 in0.5 mm
04:00 AM 53.8°F12.1°C 50.0°F10.0°C 87% 11.6 mph S18.7 kmh S 22.1 mph35.6 kmh 29.51 in999.3 mb 0.02 in0.5 mm 0.00 in0.0 mm 0.02 in0.5 mm
04:05 AM 53.4°F11.9°C 49.9°F9.9°C 88% 16.6 mph S26.7 kmh S 23.5 mph37.8 kmh 29.51 in999.3 mb 0.02 in0.5 mm 0.00 in0.0 mm 0.02 in0.5 mm
04:10 AM 53.4°F11.9°C 49.9°F9.9°C 88% 9.2 mph SSW14.8 kmh SSW 23.5 mph37.8 kmh 29.51 in999.3 mb 0.04 in1.0 mm 0.24 in6.1 mm 0.04 in1.0 mm
04:15 AM 53.6°F12.0°C 50.1°F10.1°C 88% 5.4 mph SSW8.7 kmh SSW 23.5 mph37.8 kmh 29.52 in999.7 mb 0.04 in1.0 mm 0.00 in0.0 mm 0.04 in1.0 mm
04:20 AM 53.4°F11.9°C 49.9°F9.9°C 88% 11.2 mph S18.0 kmh S 22.1 mph35.6 kmh 29.52 in999.7 mb 0.04 in1.0 mm 0.00 in0.0 mm 0.04 in1.0 mm
04:25 AM 53.4°F11.9°C 49.9°F9.9°C 88% 14.3 mph S23.0 kmh S 19.7 mph31.7 kmh 29.53 in1000.0 mb 0.04 in1.0 mm 0.00 in0.0 mm 0.04 in1.0 mm
04:30 AM 53.4°F11.9°C 49.9°F9.9°C 88% 7.4 mph S11.9 kmh S 19.0 mph30.6 kmh 29.52 in999.7 mb 0.04 in1.0 mm 0.00 in0.0 mm 0.04 in1.0 mm
04:35 AM 53.4°F11.9°C 49.9°F9.9°C 88% 13.4 mph S21.6 kmh S 19.7 mph31.7 kmh 29.52 in999.7 mb 0.04 in1.0 mm 0.00 in0.0 mm 0.04 in1.0 mm
04:40 AM 53.4°F11.9°C 49.9°F9.9°C 88% 7.4 mph SSW11.9 kmh SSW 21.9 mph35.2 kmh 29.52 in999.7 mb 0.02 in0.5 mm 0.00 in0.0 mm 0.04 in1.0 mm
04:45 AM 53.8°F12.1°C 49.8°F9.9°C 87% 11.4 mph SSW18.3 kmh SSW 21.9 mph35.2 kmh 29.53 in1000.0 mb 0.02 in0.5 mm 0.00 in0.0 mm 0.04 in1.0 mm
04:50 AM 53.8°F12.1°C 50.0°F10.0°C 87% 11.6 mph S18.7 kmh S 22.4 mph36.0 kmh 29.53 in1000.0 mb 0.02 in0.5 mm 0.00 in0.0 mm 0.04 in1.0 mm
04:55 AM 53.8°F12.1°C 50.0°F10.0°C 87% 21.0 mph S33.8 kmh S 22.4 mph36.0 kmh 29.53 in1000.0 mb 0.02 in0.5 mm 0.00 in0.0 mm 0.04 in1.0 mm
05:00 AM 53.8°F12.1°C 50.3°F10.2°C 88% 20.1 mph S32.3 kmh S 21.0 mph33.8 kmh 29.53 in1000.0 mb 0.04 in1.0 mm 0.02 in0.5 mm 0.06 in1.5 mm
05:05 AM 53.8°F12.1°C 50.3°F10.2°C 88% 11.4 mph S18.3 kmh S 20.4 mph32.8 kmh 29.54 in1000.3 mb 0.02 in0.5 mm 0.00 in0.0 mm 0.06 in1.5 mm
05:10 AM 53.8°F12.1°C 50.3°F10.2°C 88% 15.2 mph S24.5 kmh S 28.4 mph45.7 kmh 29.53 in1000.0 mb 0.02 in0.5 mm 0.00 in0.0 mm 0.06 in1.5 mm
05:15 AM 54.0°F12.2°C 50.5°F10.3°C 88% 11.9 mph S19.2 kmh S 28.4 mph45.7 kmh 29.53 in1000.0 mb 0.02 in0.5 mm 0.00 in0.0 mm 0.06 in1.5 mm
05:20 AM 54.0°F12.2°C 50.1°F10.1°C 87% 17.2 mph S27.7 kmh S 21.9 mph35.2 kmh 29.53 in1000.0 mb 0.02 in0.5 mm 0.00 in0.0 mm 0.06 in1.5 mm
05:25 AM 54.0°F12.2°C 50.5°F10.3°C 88% 19.0 mph S30.6 kmh S 22.1 mph35.6 kmh 29.54 in1000.3 mb 0.02 in0.5 mm 0.00 in0.0 mm 0.06 in1.5 mm
05:30 AM 54.1°F12.3°C 50.6°F10.3°C 88% 14.3 mph S23.0 kmh S 22.1 mph35.6 kmh 29.55 in1000.7 mb 0.02 in0.5 mm 0.00 in0.0 mm 0.06 in1.5 mm
05:35 AM 54.1°F12.3°C 50.6°F10.3°C 88% 14.1 mph S22.7 kmh S 23.3 mph37.5 kmh 29.54 in1000.3 mb 0.02 in0.5 mm 0.00 in0.0 mm 0.06 in1.5 mm
05:40 AM 54.3°F12.4°C 50.8°F10.4°C 88% 22.1 mph SSW35.6 kmh SSW 23.3 mph37.5 kmh 29.54 in1000.3 mb 0.02 in0.5 mm 0.00 in0.0 mm 0.06 in1.5 mm
05:45 AM 54.3°F12.4°C 50.8°F10.4°C 88% 14.5 mph S23.3 kmh S 27.7 mph44.6 kmh 29.54 in1000.3 mb 0.02 in0.5 mm 0.00 in0.0 mm 0.06 in1.5 mm
05:50 AM 54.3°F12.4°C 50.5°F10.3°C 87% 16.3 mph S26.2 kmh S 27.7 mph44.6 kmh 29.54 in1000.3 mb 0.00 in0.0 mm 0.00 in0.0 mm 0.06 in1.5 mm
05:55 AM 54.5°F12.5°C 50.7°F10.4°C 87% 13.0 mph S20.9 kmh S 26.6 mph42.8 kmh 29.54 in1000.3 mb 0.00 in0.0 mm 0.00 in0.0 mm 0.06 in1.5 mm
06:00 AM 54.7°F12.6°C 50.2°F10.1°C 85% 18.3 mph S29.5 kmh S 23.3 mph37.5 kmh 29.54 in1000.3 mb 0.00 in0.0 mm 0.00 in0.0 mm 0.06 in1.5 mm
06:05 AM 54.9°F12.7°C 50.1°F10.1°C 84% 19.0 mph S30.6 kmh S 28.9 mph46.5 kmh 29.54 in1000.3 mb 0.00 in0.0 mm 0.00 in0.0 mm 0.06 in1.5 mm
06:10 AM 55.0°F12.8°C 50.6°F10.3°C 85% 17.2 mph S27.7 kmh S 28.9 mph46.5 kmh 29.55 in1000.7 mb 0.00 in0.0 mm 0.00 in0.0 mm 0.06 in1.5 mm
06:15 AM 55.2°F12.9°C 50.4°F10.2°C 84% 16.8 mph S27.0 kmh S 26.4 mph42.5 kmh 29.55 in1000.7 mb 0.00 in0.0 mm 0.00 in0.0 mm 0.06 in1.5 mm
06:20 AM 55.2°F12.9°C 50.4°F10.2°C 84% 19.2 mph S30.9 kmh S 26.4 mph42.5 kmh 29.55 in1000.7 mb 0.00 in0.0 mm 0.00 in0.0 mm 0.06 in1.5 mm
06:25 AM 55.2°F12.9°C 50.1°F10.1°C 83% 17.9 mph S28.8 kmh S 20.1 mph32.3 kmh 29.55 in1000.7 mb 0.00 in0.0 mm 0.00 in0.0 mm 0.06 in1.5 mm
06:30 AM 55.2°F12.9°C 50.1°F10.1°C 83% 17.0 mph S27.4 kmh S 20.4 mph32.8 kmh 29.56 in1001.0 mb 0.00 in0.0 mm 0.00 in0.0 mm 0.06 in1.5 mm
06:35 AM 55.2°F12.9°C 50.4°F10.2°C 84% 15.7 mph S25.3 kmh S 20.6 mph33.2 kmh 29.56 in1001.0 mb 0.00 in0.0 mm 0.00 in0.0 mm 0.06 in1.5 mm
06:40 AM 55.2°F12.9°C 50.7°F10.4°C 85% 18.8 mph S30.3 kmh S 20.6 mph33.2 kmh 29.56 in1001.0 mb 0.00 in0.0 mm 0.00 in0.0 mm 0.06 in1.5 mm
06:45 AM 55.2°F12.9°C 50.7°F10.4°C 85% 12.1 mph S19.5 kmh S 21.5 mph34.6 kmh 29.56 in1001.0 mb 0.00 in0.0 mm 0.00 in0.0 mm 0.06 in1.5 mm
06:50 AM 55.0°F12.8°C 50.6°F10.3°C 85% 13.4 mph S21.6 kmh S 25.9 mph41.7 kmh 29.55 in1000.7 mb 0.00 in0.0 mm 0.00 in0.0 mm 0.06 in1.5 mm
06:55 AM 55.0°F12.8°C 50.2°F10.1°C 84% 18.3 mph S29.5 kmh S 25.9 mph41.7 kmh 29.56 in1001.0 mb 0.00 in0.0 mm 0.00 in0.0 mm 0.06 in1.5 mm
07:00 AM 55.2°F12.9°C 50.1°F10.1°C 83% 13.9 mph SSW22.4 kmh SSW 21.7 mph34.9 kmh 29.56 in1001.0 mb 0.00 in0.0 mm 0.00 in0.0 mm 0.06 in1.5 mm
07:05 AM 55.2°F12.9°C 50.1°F10.1°C 83% 15.0 mph S24.1 kmh S 21.0 mph33.8 kmh 29.57 in1001.4 mb 0.00 in0.0 mm 0.00 in0.0 mm 0.06 in1.5 mm
07:10 AM 55.4°F13.0°C 50.3°F10.2°C 83% 6.5 mph S10.5 kmh S 18.6 mph29.9 kmh 29.57 in1001.4 mb 0.00 in0.0 mm 0.00 in0.0 mm 0.06 in1.5 mm
07:15 AM 55.4°F13.0°C 50.3°F10.2°C 83% 11.9 mph S19.2 kmh S 17.0 mph27.4 kmh 29.57 in1001.4 mb 0.00 in0.0 mm 0.00 in0.0 mm 0.06 in1.5 mm
07:20 AM 55.6°F13.1°C 50.4°F10.2°C 83% 12.8 mph S20.6 kmh S 20.1 mph32.3 kmh 29.57 in1001.4 mb 0.00 in0.0 mm 0.00 in0.0 mm 0.06 in1.5 mm
07:25 AM 55.9°F13.3°C 50.5°F10.3°C 82% 6.9 mph S11.1 kmh S 20.4 mph32.8 kmh 29.58 in1001.7 mb 0.00 in0.0 mm 0.00 in0.0 mm 0.06 in1.5 mm
07:30 AM 55.9°F13.3°C 50.5°F10.3°C 82% 11.6 mph S18.7 kmh S 20.4 mph32.8 kmh 29.58 in1001.7 mb 0.00 in0.0 mm 0.00 in0.0 mm 0.06 in1.5 mm
07:35 AM 55.9°F13.3°C 50.5°F10.3°C 82% 12.5 mph S20.1 kmh S 19.2 mph30.9 kmh 29.58 in1001.7 mb 0.00 in0.0 mm 0.00 in0.0 mm 0.06 in1.5 mm
07:40 AM 55.9°F13.3°C 50.1°F10.1°C 81% 11.6 mph SSW18.7 kmh SSW 23.7 mph38.1 kmh 29.58 in1001.7 mb 0.00 in0.0 mm 0.00 in0.0 mm 0.06 in1.5 mm
07:45 AM 56.3°F13.5°C 50.5°F10.3°C 81% 18.3 mph SSW29.5 kmh SSW 23.7 mph38.1 kmh 29.58 in1001.7 mb 0.00 in0.0 mm 0.00 in0.0 mm 0.06 in1.5 mm
07:50 AM 56.3°F13.5°C 50.5°F10.3°C 81% 12.3 mph S19.8 kmh S 19.2 mph30.9 kmh 29.59 in1002.0 mb 0.00 in0.0 mm 0.00 in0.0 mm 0.06 in1.5 mm
07:55 AM 56.3°F13.5°C 50.5°F10.3°C 81% 8.9 mph S14.3 kmh S 21.3 mph34.3 kmh 29.59 in1002.0 mb 0.00 in0.0 mm 0.00 in0.0 mm 0.06 in1.5 mm
08:00 AM 56.5°F13.6°C 50.4°F10.2°C 80% 11.9 mph S19.2 kmh S 21.3 mph34.3 kmh 29.59 in1002.0 mb 0.00 in0.0 mm 0.00 in0.0 mm 0.06 in1.5 mm
08:05 AM 56.5°F13.6°C 50.7°F10.4°C 81% 18.1 mph S29.1 kmh S 20.6 mph33.2 kmh 29.60 in1002.4 mb 0.00 in0.0 mm 0.00 in0.0 mm 0.06 in1.5 mm
08:10 AM 56.5°F13.6°C 51.0°F10.6°C 82% 8.1 mph S13.0 kmh S 22.6 mph36.4 kmh 29.60 in1002.4 mb 0.00 in0.0 mm 0.00 in0.0 mm 0.06 in1.5 mm
08:15 AM 56.1°F13.4°C 50.6°F10.3°C 82% 12.8 mph SSW20.6 kmh SSW 22.6 mph36.4 kmh 29.60 in1002.4 mb 0.00 in0.0 mm 0.00 in0.0 mm 0.06 in1.5 mm
08:20 AM 56.1°F13.4°C 50.6°F10.3°C 82% 16.8 mph SSW27.0 kmh SSW 27.3 mph43.9 kmh 29.60 in1002.4 mb 0.00 in0.0 mm 0.00 in0.0 mm 0.06 in1.5 mm
08:25 AM 56.3°F13.5°C 50.8°F10.4°C 82% 11.4 mph SSW18.3 kmh SSW 27.3 mph43.9 kmh 29.60 in1002.4 mb 0.00 in0.0 mm 0.00 in0.0 mm 0.06 in1.5 mm
08:30 AM 56.5°F13.6°C 51.0°F10.6°C 82% 16.3 mph SSW26.2 kmh SSW 23.5 mph37.8 kmh 29.61 in1002.7 mb 0.00 in0.0 mm 0.00 in0.0 mm 0.06 in1.5 mm
08:35 AM 56.5°F13.6°C 50.7°F10.4°C 81% 7.8 mph SSW12.6 kmh SSW 23.5 mph37.8 kmh 29.60 in1002.4 mb 0.00 in0.0 mm 0.00 in0.0 mm 0.06 in1.5 mm
08:40 AM 57.0°F13.9°C 50.9°F10.5°C 80% 11.9 mph SSW19.2 kmh SSW 20.6 mph33.2 kmh 29.60 in1002.4 mb 0.00 in0.0 mm 0.00 in0.0 mm 0.06 in1.5 mm
08:45 AM 57.2°F14.0°C 50.4°F10.2°C 78% 15.9 mph SSW25.6 kmh SSW 25.9 mph41.7 kmh 29.60 in1002.4 mb 0.00 in0.0 mm 0.00 in0.0 mm 0.06 in1.5 mm
08:50 AM 57.4°F14.1°C 50.5°F10.3°C 78% 9.2 mph SSW14.8 kmh SSW 25.9 mph41.7 kmh 29.60 in1002.4 mb 0.00 in0.0 mm 0.00 in0.0 mm 0.06 in1.5 mm
08:55 AM 57.6°F14.2°C 51.1°F10.6°C 79% 2.9 mph SSW4.7 kmh SSW 19.5 mph31.4 kmh 29.60 in1002.4 mb 0.00 in0.0 mm 0.00 in0.0 mm 0.06 in1.5 mm
09:00 AM 57.6°F14.2°C 51.1°F10.6°C 79% 12.3 mph SSW19.8 kmh SSW 20.1 mph32.3 kmh 29.61 in1002.7 mb 0.00 in0.0 mm 0.00 in0.0 mm 0.06 in1.5 mm
09:05 AM 57.7°F14.3°C 50.9°F10.5°C 78% 10.1 mph SSW16.3 kmh SSW 22.1 mph35.6 kmh 29.60 in1002.4 mb 0.00 in0.0 mm 0.00 in0.0 mm 0.06 in1.5 mm
09:10 AM 57.9°F14.4°C 50.7°F10.4°C 77% 14.8 mph SSW23.8 kmh SSW 22.4 mph36.0 kmh 29.60 in1002.4 mb 0.00 in0.0 mm 0.00 in0.0 mm 0.06 in1.5 mm
09:15 AM 58.5°F14.7°C 50.9°F10.5°C 75% 13.6 mph SSW21.9 kmh SSW 22.4 mph36.0 kmh 29.60 in1002.4 mb 0.00 in0.0 mm 0.00 in0.0 mm 0.06 in1.5 mm
09:20 AM 58.6°F14.8°C 50.7°F10.4°C 75% 14.5 mph S23.3 kmh S 21.0 mph33.8 kmh 29.60 in1002.4 mb 0.00 in0.0 mm 0.00 in0.0 mm 0.06 in1.5 mm
09:25 AM 58.6°F14.8°C 50.7°F10.4°C 75% 17.2 mph S27.7 kmh S 21.7 mph34.9 kmh 29.60 in1002.4 mb 0.00 in0.0 mm 0.00 in0.0 mm 0.06 in1.5 mm
09:30 AM 58.8°F14.9°C 50.5°F10.3°C 74% 19.2 mph S30.9 kmh S 21.7 mph34.9 kmh 29.60 in1002.4 mb 0.00 in0.0 mm 0.00 in0.0 mm 0.06 in1.5 mm
09:35 AM 59.0°F15.0°C 51.1°F10.6°C 75% 12.5 mph S20.1 kmh S 21.7 mph34.9 kmh 29.60 in1002.4 mb 0.00 in0.0 mm 0.00 in0.0 mm 0.06 in1.5 mm
09:40 AM 59.4°F15.2°C 51.1°F10.6°C 74% 16.3 mph S26.2 kmh S 20.1 mph32.3 kmh 29.60 in1002.4 mb 0.00 in0.0 mm 0.00 in0.0 mm 0.06 in1.5 mm
09:45 AM 59.5°F15.3°C 51.3°F10.7°C 74% 19.9 mph SSW32.0 kmh SSW 22.8 mph36.7 kmh 29.60 in1002.4 mb 0.00 in0.0 mm 0.00 in0.0 mm 0.06 in1.5 mm
09:50 AM 59.5°F15.3°C 51.3°F10.7°C 74% 17.2 mph SSW27.7 kmh SSW 22.8 mph36.7 kmh 29.61 in1002.7 mb 0.00 in0.0 mm 0.00 in0.0 mm 0.06 in1.5 mm
09:55 AM 59.7°F15.4°C 51.4°F10.8°C 74% 10.3 mph S16.6 kmh S 21.7 mph34.9 kmh 29.61 in1002.7 mb 0.00 in0.0 mm 0.00 in0.0 mm 0.06 in1.5 mm
10:00 AM 59.9°F15.5°C 51.3°F10.7°C 73% 8.3 mph S13.4 kmh S 20.1 mph32.3 kmh 29.61 in1002.7 mb 0.00 in0.0 mm 0.00 in0.0 mm 0.06 in1.5 mm
10:05 AM 60.1°F15.6°C 51.8°F11.0°C 74% 17.2 mph SSW27.7 kmh SSW 21.0 mph33.8 kmh 29.61 in1002.7 mb 0.00 in0.0 mm 0.00 in0.0 mm 0.06 in1.5 mm
10:10 AM 60.1°F15.6°C 51.8°F11.0°C 74% 19.2 mph SSW30.9 kmh SSW 21.0 mph33.8 kmh 29.62 in1003.0 mb 0.00 in0.0 mm 0.00 in0.0 mm 0.06 in1.5 mm
10:15 AM 60.1°F15.6°C 51.8°F11.0°C 74% 8.1 mph S13.0 kmh S 20.4 mph32.8 kmh 29.62 in1003.0 mb 0.00 in0.0 mm 0.00 in0.0 mm 0.06 in1.5 mm
10:20 AM 60.6°F15.9°C 52.2°F11.2°C 74% 13.6 mph S21.9 kmh S 20.4 mph32.8 kmh 29.62 in1003.0 mb 0.00 in0.0 mm 0.00 in0.0 mm 0.06 in1.5 mm
10:25 AM 61.0°F16.1°C 52.7°F11.5°C 74% 9.8 mph S15.8 kmh S 19.0 mph30.6 kmh 29.62 in1003.0 mb 0.00 in0.0 mm 0.00 in0.0 mm 0.06 in1.5 mm
10:30 AM 61.2°F16.2°C 52.5°F11.4°C 73% 9.6 mph SSW15.4 kmh SSW 19.0 mph30.6 kmh 29.62 in1003.0 mb 0.00 in0.0 mm 0.00 in0.0 mm 0.06 in1.5 mm
10:35 AM 61.3°F16.3°C 52.6°F11.4°C 73% 8.1 mph S13.0 kmh S 19.0 mph30.6 kmh 29.62 in1003.0 mb 0.00 in0.0 mm 0.00 in0.0 mm 0.06 in1.5 mm
10:40 AM 61.5°F16.4°C 52.8°F11.6°C 73% 8.3 mph S13.4 kmh S 15.0 mph24.1 kmh 29.62 in1003.0 mb 0.00 in0.0 mm 0.00 in0.0 mm 0.06 in1.5 mm
10:45 AM 61.5°F16.4°C 52.8°F11.6°C 73% 12.3 mph SSW19.8 kmh SSW 15.7 mph25.3 kmh 29.62 in1003.0 mb 0.00 in0.0 mm 0.00 in0.0 mm 0.06 in1.5 mm
10:50 AM 61.7°F16.5°C 52.6°F11.4°C 72% 11.2 mph SSW18.0 kmh SSW 16.6 mph26.7 kmh 29.62 in1003.0 mb 0.00 in0.0 mm 0.00 in0.0 mm 0.06 in1.5 mm
10:55 AM 61.5°F16.4°C 52.8°F11.6°C 73% 14.5 mph S23.3 kmh S 19.0 mph30.6 kmh 29.62 in1003.0 mb 0.00 in0.0 mm 0.00 in0.0 mm 0.06 in1.5 mm
11:00 AM 61.5°F16.4°C 52.8°F11.6°C 73% 9.8 mph S15.8 kmh S 19.0 mph30.6 kmh 29.62 in1003.0 mb 0.00 in0.0 mm 0.00 in0.0 mm 0.06 in1.5 mm
11:05 AM 61.5°F16.4°C 52.8°F11.6°C 73% 6.3 mph SSW10.1 kmh SSW 20.4 mph32.8 kmh 29.62 in1003.0 mb 0.00 in0.0 mm 0.00 in0.0 mm 0.06 in1.5 mm
11:10 AM 61.5°F16.4°C 52.4°F11.3°C 72% 17.2 mph SSW27.7 kmh SSW 21.9 mph35.2 kmh 29.62 in1003.0 mb 0.00 in0.0 mm 0.00 in0.0 mm 0.06 in1.5 mm
11:15 AM 61.2°F16.2°C 52.1°F11.2°C 72% 16.6 mph SSW26.7 kmh SSW 21.9 mph35.2 kmh 29.62 in1003.0 mb 0.00 in0.0 mm 0.00 in0.0 mm 0.06 in1.5 mm
11:20 AM 61.0°F16.1°C 52.0°F11.1°C 72% 7.8 mph SSW12.6 kmh SSW 19.5 mph31.4 kmh 29.62 in1003.0 mb 0.00 in0.0 mm 0.00 in0.0 mm 0.06 in1.5 mm
11:25 AM 61.3°F16.3°C 51.9°F11.1°C 71% 12.3 mph SSW19.8 kmh SSW 19.5 mph31.4 kmh 29.62 in1003.0 mb 0.00 in0.0 mm 0.00 in0.0 mm 0.06 in1.5 mm
11:30 AM 61.9°F16.6°C 52.4°F11.3°C 71% 8.9 mph S14.3 kmh S 18.8 mph30.3 kmh 29.62 in1003.0 mb 0.00 in0.0 mm 0.00 in0.0 mm 0.06 in1.5 mm
11:35 AM 62.4°F16.9°C 51.7°F10.9°C 68% 8.5 mph SSW13.7 kmh SSW 20.6 mph33.2 kmh 29.62 in1003.0 mb 0.00 in0.0 mm 0.00 in0.0 mm 0.06 in1.5 mm
11:40 AM 63.0°F17.2°C 51.8°F11.0°C 68% 7.6 mph SSW12.2 kmh SSW 20.6 mph33.2 kmh 29.62 in1003.0 mb 0.00 in0.0 mm 0.00 in0.0 mm 0.06 in1.5 mm
11:45 AM 63.1°F17.3°C 51.5°F10.8°C 66% 12.8 mph S20.6 kmh S 22.6 mph36.4 kmh 29.62 in1003.0 mb 0.00 in0.0 mm 0.00 in0.0 mm 0.06 in1.5 mm
11:50 AM 63.1°F17.3°C 51.5°F10.8°C 66% 10.5 mph S16.9 kmh S 22.6 mph36.4 kmh 29.61 in1002.7 mb 0.00 in0.0 mm 0.00 in0.0 mm 0.06 in1.5 mm
11:55 AM 63.5°F17.5°C 51.9°F11.1°C 66% 11.2 mph S18.0 kmh S 17.9 mph28.8 kmh 29.61 in1002.7 mb 0.00 in0.0 mm 0.00 in0.0 mm 0.06 in1.5 mm
12:00 PM 63.7°F17.6°C 51.7°F10.9°C 65% 6.0 mph S9.7 kmh S 17.9 mph28.8 kmh 29.60 in1002.4 mb 0.00 in0.0 mm 0.00 in0.0 mm 0.06 in1.5 mm
12:05 PM 64.0°F17.8°C 52.0°F11.1°C 65% 8.5 mph S13.7 kmh S 17.2 mph27.7 kmh 29.60 in1002.4 mb 0.00 in0.0 mm 0.00 in0.0 mm 0.06 in1.5 mm
12:10 PM 64.0°F17.8°C 52.0°F11.1°C 65% 4.5 mph S7.2 kmh S 17.2 mph27.7 kmh 29.60 in1002.4 mb 0.00 in0.0 mm 0.00 in0.0 mm 0.06 in1.5 mm
12:15 PM 64.0°F17.8°C 51.6°F10.9°C 64% 15.0 mph S24.1 kmh S 17.4 mph28.0 kmh 29.60 in1002.4 mb 0.00 in0.0 mm 0.00 in0.0 mm 0.06 in1.5 mm
12:20 PM 64.2°F17.9°C 51.7°F10.9°C 64% 10.5 mph S16.9 kmh S 17.4 mph28.0 kmh 29.59 in1002.0 mb 0.00 in0.0 mm 0.00 in0.0 mm 0.06 in1.5 mm
12:25 PM 64.2°F17.9°C 51.3°F10.7°C 63% 5.8 mph S9.3 kmh S 20.1 mph32.3 kmh 29.59 in1002.0 mb 0.00 in0.0 mm 0.00 in0.0 mm 0.06 in1.5 mm
12:30 PM 64.0°F17.8°C 51.3°F10.7°C 63% 9.2 mph S14.8 kmh S 21.0 mph33.8 kmh 29.59 in1002.0 mb 0.00 in0.0 mm 0.00 in0.0 mm 0.06 in1.5 mm
12:35 PM 64.0°F17.8°C 51.6°F10.9°C 64% 5.8 mph S9.3 kmh S 21.0 mph33.8 kmh 29.59 in1002.0 mb 0.00 in0.0 mm 0.00 in0.0 mm 0.06 in1.5 mm
12:40 PM 64.0°F17.8°C 51.6°F10.9°C 64% 2.9 mph S4.7 kmh S 13.4 mph21.6 kmh 29.59 in1002.0 mb 0.00 in0.0 mm 0.00 in0.0 mm 0.06 in1.5 mm
12:45 PM 64.2°F17.9°C 52.2°F11.2°C 65% 13.0 mph S20.9 kmh S 18.3 mph29.5 kmh 29.59 in1002.0 mb 0.00 in0.0 mm 0.00 in0.0 mm 0.06 in1.5 mm
12:50 PM 63.5°F17.5°C 51.9°F11.1°C 66% 11.9 mph SSW19.2 kmh SSW 18.3 mph29.5 kmh 29.59 in1002.0 mb 0.00 in0.0 mm 0.00 in0.0 mm 0.06 in1.5 mm
12:55 PM 62.8°F17.1°C 52.4°F11.3°C 69% 7.2 mph SSW11.6 kmh SSW 18.8 mph30.3 kmh 29.59 in1002.0 mb 0.00 in0.0 mm 0.00 in0.0 mm 0.06 in1.5 mm
01:00 PM 62.8°F17.1°C 52.9°F11.6°C 70% 11.4 mph S18.3 kmh S 18.8 mph30.3 kmh 29.59 in1002.0 mb 0.00 in0.0 mm 0.00 in0.0 mm 0.06 in1.5 mm
01:05 PM 63.1°F17.3°C 52.8°F11.6°C 69% 3.1 mph S5.0 kmh S 15.2 mph24.5 kmh 29.59 in1002.0 mb 0.00 in0.0 mm 0.00 in0.0 mm 0.06 in1.5 mm
01:10 PM 63.1°F17.3°C 52.0°F11.1°C 67% 5.8 mph SSE9.3 kmh SSE 15.7 mph25.3 kmh 29.59 in1002.0 mb 0.00 in0.0 mm 0.00 in0.0 mm 0.06 in1.5 mm
01:15 PM 63.3°F17.4°C 51.7°F10.9°C 66% 5.8 mph S9.3 kmh S 19.7 mph31.7 kmh 29.59 in1002.0 mb 0.00 in0.0 mm 0.00 in0.0 mm 0.06 in1.5 mm
01:20 PM 63.1°F17.3°C 52.0°F11.1°C 67% 6.3 mph S10.1 kmh S 19.7 mph31.7 kmh 29.59 in1002.0 mb 0.00 in0.0 mm 0.00 in0.0 mm 0.06 in1.5 mm
01:25 PM 63.1°F17.3°C 51.5°F10.8°C 66% 8.9 mph S14.3 kmh S 19.0 mph30.6 kmh 29.59 in1002.0 mb 0.00 in0.0 mm 0.00 in0.0 mm 0.06 in1.5 mm
01:30 PM 63.3°F17.4°C 51.3°F10.7°C 65% 14.5 mph S23.3 kmh S 14.5 mph23.3 kmh 29.59 in1002.0 mb 0.00 in0.0 mm 0.00 in0.0 mm 0.06 in1.5 mm
01:35 PM 63.5°F17.5°C 51.1°F10.6°C 64% 3.6 mph S5.8 kmh S 20.1 mph32.3 kmh 29.58 in1001.7 mb 0.00 in0.0 mm 0.00 in0.0 mm 0.06 in1.5 mm
01:40 PM 63.7°F17.6°C 51.2°F10.7°C 64% 4.5 mph S7.2 kmh S 20.1 mph32.3 kmh 29.58 in1001.7 mb 0.00 in0.0 mm 0.00 in0.0 mm 0.06 in1.5 mm
01:45 PM 64.0°F17.8°C 51.6°F10.9°C 64% 3.6 mph S5.8 kmh S 11.9 mph19.2 kmh 29.58 in1001.7 mb 0.00 in0.0 mm 0.00 in0.0 mm 0.06 in1.5 mm
01:50 PM 64.2°F17.9°C 51.3°F10.7°C 63% 8.7 mph S14.0 kmh S 15.7 mph25.3 kmh 29.57 in1001.4 mb 0.00 in0.0 mm 0.00 in0.0 mm 0.06 in1.5 mm
01:55 PM 64.2°F17.9°C 51.7°F10.9°C 64% 10.7 mph S17.2 kmh S 15.7 mph25.3 kmh 29.57 in1001.4 mb 0.00 in0.0 mm 0.00 in0.0 mm 0.06 in1.5 mm
02:00 PM 63.5°F17.5°C 51.9°F11.1°C 66% 9.6 mph S15.4 kmh S 19.5 mph31.4 kmh 29.58 in1001.7 mb 0.00 in0.0 mm 0.00 in0.0 mm 0.06 in1.5 mm
02:05 PM 63.1°F17.3°C 52.0°F11.1°C 67% 8.3 mph S13.4 kmh S 19.5 mph31.4 kmh 29.58 in1001.7 mb 0.00 in0.0 mm 0.00 in0.0 mm 0.06 in1.5 mm
02:10 PM 63.1°F17.3°C 52.4°F11.3°C 68% 11.2 mph S18.0 kmh S 15.9 mph25.6 kmh 29.58 in1001.7 mb 0.00 in0.0 mm 0.00 in0.0 mm 0.06 in1.5 mm
02:15 PM 62.8°F17.1°C 52.0°F11.1°C 68% 15.7 mph S25.3 kmh S 18.6 mph29.9 kmh 29.59 in1002.0 mb 0.00 in0.0 mm 0.00 in0.0 mm 0.06 in1.5 mm
02:20 PM 62.4°F16.9°C 51.7°F10.9°C 68% 15.7 mph S25.3 kmh S 21.0 mph33.8 kmh 29.59 in1002.0 mb 0.00 in0.0 mm 0.00 in0.0 mm 0.06 in1.5 mm
02:25 PM 62.4°F16.9°C 51.3°F10.7°C 67% 15.2 mph S24.5 kmh S 21.0 mph33.8 kmh 29.59 in1002.0 mb 0.00 in0.0 mm 0.00 in0.0 mm 0.06 in1.5 mm
02:30 PM 62.4°F16.9°C 51.3°F10.7°C 67% 19.0 mph S30.6 kmh S 22.6 mph36.4 kmh 29.59 in1002.0 mb 0.00 in0.0 mm 0.00 in0.0 mm 0.06 in1.5 mm
02:35 PM 62.2°F16.8°C 51.5°F10.8°C 68% 10.5 mph S16.9 kmh S 22.6 mph36.4 kmh 29.60 in1002.4 mb 0.00 in0.0 mm 0.00 in0.0 mm 0.06 in1.5 mm
02:40 PM 62.2°F16.8°C 51.5°F10.8°C 68% 7.6 mph S12.2 kmh S 19.7 mph31.7 kmh 29.60 in1002.4 mb 0.00 in0.0 mm 0.00 in0.0 mm 0.06 in1.5 mm
02:45 PM 62.2°F16.8°C 51.5°F10.8°C 68% 13.0 mph S20.9 kmh S 19.5 mph31.4 kmh 29.60 in1002.4 mb 0.00 in0.0 mm 0.00 in0.0 mm 0.06 in1.5 mm
02:50 PM 62.2°F16.8°C 52.0°F11.1°C 69% 12.8 mph S20.6 kmh S 17.0 mph27.4 kmh 29.60 in1002.4 mb 0.00 in0.0 mm 0.00 in0.0 mm 0.06 in1.5 mm
02:55 PM 62.1°F16.7°C 52.2°F11.2°C 70% 7.6 mph S12.2 kmh S 16.6 mph26.7 kmh 29.59 in1002.0 mb 0.00 in0.0 mm 0.00 in0.0 mm 0.06 in1.5 mm
03:00 PM 62.1°F16.7°C 52.2°F11.2°C 70% 3.6 mph S5.8 kmh S 16.1 mph25.9 kmh 29.60 in1002.4 mb 0.00 in0.0 mm 0.00 in0.0 mm 0.06 in1.5 mm
03:05 PM 62.2°F16.8°C 52.4°F11.3°C 70% 8.3 mph S13.4 kmh S 14.5 mph23.3 kmh 29.59 in1002.0 mb 0.00 in0.0 mm 0.00 in0.0 mm 0.06 in1.5 mm
03:10 PM 62.4°F16.9°C 52.5°F11.4°C 70% 8.9 mph S14.3 kmh S 16.1 mph25.9 kmh 29.59 in1002.0 mb 0.00 in0.0 mm 0.00 in0.0 mm 0.06 in1.5 mm
03:15 PM 62.4°F16.9°C 52.1°F11.2°C 69% 6.7 mph S10.8 kmh S 16.8 mph27.0 kmh 29.59 in1002.0 mb 0.00 in0.0 mm 0.00 in0.0 mm 0.06 in1.5 mm
03:20 PM 62.4°F16.9°C 52.1°F11.2°C 69% 18.8 mph S30.3 kmh S 18.8 mph30.3 kmh 29.59 in1002.0 mb 0.00 in0.0 mm 0.00 in0.0 mm 0.06 in1.5 mm
03:25 PM 62.2°F16.8°C 52.0°F11.1°C 69% 10.5 mph S16.9 kmh S 18.8 mph30.3 kmh 29.59 in1002.0 mb 0.00 in0.0 mm 0.00 in0.0 mm 0.06 in1.5 mm
03:30 PM 62.4°F16.9°C 52.1°F11.2°C 69% 2.9 mph S4.7 kmh S 17.4 mph28.0 kmh 29.59 in1002.0 mb 0.00 in0.0 mm 0.00 in0.0 mm 0.06 in1.5 mm
03:35 PM 62.4°F16.9°C 52.1°F11.2°C 69% 9.2 mph S14.8 kmh S 17.4 mph28.0 kmh 29.59 in1002.0 mb 0.00 in0.0 mm 0.00 in0.0 mm 0.06 in1.5 mm
03:40 PM 62.2°F16.8°C 52.4°F11.3°C 70% 11.2 mph SSW18.0 kmh SSW 17.4 mph28.0 kmh 29.59 in1002.0 mb 0.00 in0.0 mm 0.00 in0.0 mm 0.06 in1.5 mm
03:45 PM 62.2°F16.8°C 52.7°F11.5°C 71% 10.3 mph SSW16.6 kmh SSW 17.4 mph28.0 kmh 29.59 in1002.0 mb 0.00 in0.0 mm 0.00 in0.0 mm 0.06 in1.5 mm
03:50 PM 62.2°F16.8°C 52.7°F11.5°C 71% 17.2 mph SSW27.7 kmh SSW 20.8 mph33.5 kmh 29.59 in1002.0 mb 0.00 in0.0 mm 0.00 in0.0 mm 0.06 in1.5 mm
03:55 PM 62.2°F16.8°C 52.7°F11.5°C 71% 7.2 mph SSW11.6 kmh SSW 20.8 mph33.5 kmh 29.59 in1002.0 mb 0.00 in0.0 mm 0.00 in0.0 mm 0.06 in1.5 mm
04:00 PM 62.2°F16.8°C 53.1°F11.7°C 72% 4.7 mph S7.6 kmh S 17.2 mph27.7 kmh 29.60 in1002.4 mb 0.00 in0.0 mm 0.00 in0.0 mm 0.06 in1.5 mm
04:05 PM 62.2°F16.8°C 53.5°F11.9°C 73% 7.8 mph S12.6 kmh S 16.6 mph26.7 kmh 29.59 in1002.0 mb 0.00 in0.0 mm 0.00 in0.0 mm 0.06 in1.5 mm
04:10 PM 62.2°F16.8°C 53.8°F12.1°C 74% 8.7 mph S14.0 kmh S 15.0 mph24.1 kmh 29.59 in1002.0 mb 0.00 in0.0 mm 0.00 in0.0 mm 0.06 in1.5 mm
04:15 PM 62.1°F16.7°C 53.7°F12.1°C 74% 7.6 mph S12.2 kmh S 15.7 mph25.3 kmh 29.59 in1002.0 mb 0.00 in0.0 mm 0.00 in0.0 mm 0.06 in1.5 mm
04:20 PM 61.9°F16.6°C 53.5°F11.9°C 74% 7.6 mph S12.2 kmh S 15.7 mph25.3 kmh 29.60 in1002.4 mb 0.00 in0.0 mm 0.00 in0.0 mm 0.06 in1.5 mm
04:25 PM 61.9°F16.6°C 53.9°F12.2°C 75% 8.3 mph S13.4 kmh S 17.2 mph27.7 kmh 29.60 in1002.4 mb 0.00 in0.0 mm 0.00 in0.0 mm 0.06 in1.5 mm
04:30 PM 61.9°F16.6°C 54.2°F12.3°C 76% 6.3 mph S10.1 kmh S 17.2 mph27.7 kmh 29.60 in1002.4 mb 0.00 in0.0 mm 0.00 in0.0 mm 0.06 in1.5 mm
04:35 PM 61.9°F16.6°C 54.6°F12.6°C 77% 7.2 mph S11.6 kmh S 18.1 mph29.1 kmh 29.60 in1002.4 mb 0.00 in0.0 mm 0.00 in0.0 mm 0.06 in1.5 mm
04:40 PM 61.7°F16.5°C 54.8°F12.7°C 78% 10.3 mph SSW16.6 kmh SSW 18.1 mph29.1 kmh 29.60 in1002.4 mb 0.00 in0.0 mm 0.00 in0.0 mm 0.06 in1.5 mm
04:45 PM 61.7°F16.5°C 54.8°F12.7°C 78% 14.5 mph SSW23.3 kmh SSW 17.7 mph28.5 kmh 29.60 in1002.4 mb 0.00 in0.0 mm 0.00 in0.0 mm 0.06 in1.5 mm
04:50 PM 61.5°F16.4°C 54.6°F12.6°C 78% 6.3 mph SSW10.1 kmh SSW 17.7 mph28.5 kmh 29.60 in1002.4 mb 0.00 in0.0 mm 0.00 in0.0 mm 0.06 in1.5 mm
04:55 PM 61.5°F16.4°C 54.6°F12.6°C 78% 6.9 mph S11.1 kmh S 17.2 mph27.7 kmh 29.60 in1002.4 mb 0.00 in0.0 mm 0.00 in0.0 mm 0.06 in1.5 mm
05:00 PM 61.5°F16.4°C 54.6°F12.6°C 78% 7.8 mph SSW12.6 kmh SSW 15.4 mph24.8 kmh 29.61 in1002.7 mb 0.00 in0.0 mm 0.00 in0.0 mm 0.06 in1.5 mm
05:05 PM 61.3°F16.3°C 54.4°F12.4°C 78% 6.7 mph SSW10.8 kmh SSW 15.4 mph24.8 kmh 29.61 in1002.7 mb 0.00 in0.0 mm 0.00 in0.0 mm 0.06 in1.5 mm
05:10 PM 61.2°F16.2°C 54.6°F12.6°C 79% 8.3 mph S13.4 kmh S 14.3 mph23.0 kmh 29.60 in1002.4 mb 0.00 in0.0 mm 0.00 in0.0 mm 0.06 in1.5 mm
05:15 PM 61.0°F16.1°C 54.5°F12.5°C 79% 16.6 mph SSW26.7 kmh SSW 16.6 mph26.7 kmh 29.60 in1002.4 mb 0.00 in0.0 mm 0.00 in0.0 mm 0.06 in1.5 mm
05:20 PM 61.0°F16.1°C 54.8°F12.7°C 80% 19.5 mph SSW31.4 kmh SSW 21.3 mph34.3 kmh 29.60 in1002.4 mb 0.00 in0.0 mm 0.00 in0.0 mm 0.06 in1.5 mm
05:25 PM 61.0°F16.1°C 55.2°F12.9°C 81% 9.6 mph SSW15.4 kmh SSW 21.3 mph34.3 kmh 29.60 in1002.4 mb 0.00 in0.0 mm 0.00 in0.0 mm 0.06 in1.5 mm
05:30 PM 60.6°F15.9°C 54.8°F12.7°C 81% 12.3 mph S19.8 kmh S 19.5 mph31.4 kmh 29.61 in1002.7 mb 0.00 in0.0 mm 0.00 in0.0 mm 0.06 in1.5 mm
05:35 PM 60.6°F15.9°C 54.8°F12.7°C 81% 8.9 mph S14.3 kmh S 18.3 mph29.5 kmh 29.60 in1002.4 mb 0.00 in0.0 mm 0.00 in0.0 mm 0.06 in1.5 mm
05:40 PM 60.6°F15.9°C 54.8°F12.7°C 81% 16.8 mph SSW27.0 kmh SSW 18.1 mph29.1 kmh 29.61 in1002.7 mb 0.00 in0.0 mm 0.00 in0.0 mm 0.06 in1.5 mm
05:45 PM 60.6°F15.9°C 54.8°F12.7°C 81% 12.5 mph SSW20.1 kmh SSW 18.1 mph29.1 kmh 29.61 in1002.7 mb 0.00 in0.0 mm 0.00 in0.0 mm 0.06 in1.5 mm
05:50 PM 60.6°F15.9°C 55.1°F12.8°C 82% 12.5 mph SSW20.1 kmh SSW 18.8 mph30.3 kmh 29.61 in1002.7 mb 0.00 in0.0 mm 0.00 in0.0 mm 0.06 in1.5 mm
05:55 PM 60.4°F15.8°C 55.0°F12.8°C 82% 14.5 mph SSW23.3 kmh SSW 18.8 mph30.3 kmh 29.61 in1002.7 mb 0.00 in0.0 mm 0.00 in0.0 mm 0.06 in1.5 mm
06:00 PM 60.4°F15.8°C 55.0°F12.8°C 82% 17.7 mph SSW28.5 kmh SSW 20.1 mph32.3 kmh 29.61 in1002.7 mb 0.00 in0.0 mm 0.00 in0.0 mm 0.06 in1.5 mm
06:05 PM 60.4°F15.8°C 55.0°F12.8°C 82% 16.1 mph SSW25.9 kmh SSW 20.1 mph32.3 kmh 29.61 in1002.7 mb 0.00 in0.0 mm 0.00 in0.0 mm 0.06 in1.5 mm
06:10 PM 60.4°F15.8°C 55.0°F12.8°C 82% 16.3 mph S26.2 kmh S 19.5 mph31.4 kmh 29.61 in1002.7 mb 0.00 in0.0 mm 0.00 in0.0 mm 0.06 in1.5 mm
06:15 PM 60.4°F15.8°C 55.0°F12.8°C 82% 13.2 mph S21.2 kmh S 19.5 mph31.4 kmh 29.61 in1002.7 mb 0.00 in0.0 mm 0.00 in0.0 mm 0.06 in1.5 mm
06:20 PM 60.4°F15.8°C 55.0°F12.8°C 82% 12.1 mph SSW19.5 kmh SSW 19.2 mph30.9 kmh 29.61 in1002.7 mb 0.00 in0.0 mm 0.00 in0.0 mm 0.06 in1.5 mm
06:25 PM 60.4°F15.8°C 55.0°F12.8°C 82% 19.0 mph SSW30.6 kmh SSW 24.2 mph38.9 kmh 29.61 in1002.7 mb 0.00 in0.0 mm 0.00 in0.0 mm 0.06 in1.5 mm
06:30 PM 60.4°F15.8°C 55.0°F12.8°C 82% 11.4 mph SSW18.3 kmh SSW 24.2 mph38.9 kmh 29.62 in1003.0 mb 0.00 in0.0 mm 0.00 in0.0 mm 0.06 in1.5 mm
06:35 PM 60.4°F15.8°C 55.0°F12.8°C 82% 11.4 mph SSW18.3 kmh SSW 22.6 mph36.4 kmh 29.61 in1002.7 mb 0.00 in0.0 mm 0.00 in0.0 mm 0.06 in1.5 mm
06:40 PM 60.4°F15.8°C 55.0°F12.8°C 82% 11.2 mph S18.0 kmh S 18.8 mph30.3 kmh 29.61 in1002.7 mb 0.00 in0.0 mm 0.00 in0.0 mm 0.06 in1.5 mm
06:45 PM 60.4°F15.8°C 55.0°F12.8°C 82% 14.3 mph S23.0 kmh S 18.8 mph30.3 kmh 29.61 in1002.7 mb 0.00 in0.0 mm 0.00 in0.0 mm 0.06 in1.5 mm
06:50 PM 60.4°F15.8°C 55.0°F12.8°C 82% 8.1 mph S13.0 kmh S 15.4 mph24.8 kmh 29.60 in1002.4 mb 0.00 in0.0 mm 0.00 in0.0 mm 0.06 in1.5 mm
06:55 PM 60.4°F15.8°C 55.0°F12.8°C 82% 11.6 mph S18.7 kmh S 17.0 mph27.4 kmh 29.60 in1002.4 mb 0.00 in0.0 mm 0.00 in0.0 mm 0.06 in1.5 mm
07:00 PM 60.4°F15.8°C 55.3°F12.9°C 83% 6.3 mph SSW10.1 kmh SSW 17.0 mph27.4 kmh 29.61 in1002.7 mb 0.00 in0.0 mm 0.00 in0.0 mm 0.06 in1.5 mm
07:05 PM 60.4°F15.8°C 55.3°F12.9°C 83% 10.3 mph SSW16.6 kmh SSW 20.1 mph32.3 kmh 29.61 in1002.7 mb 0.00 in0.0 mm 0.00 in0.0 mm 0.06 in1.5 mm
07:10 PM 60.4°F15.8°C 55.3°F12.9°C 83% 6.3 mph S10.1 kmh S 20.1 mph32.3 kmh 29.61 in1002.7 mb 0.00 in0.0 mm 0.00 in0.0 mm 0.06 in1.5 mm
07:15 PM 60.4°F15.8°C 55.3°F12.9°C 83% 8.9 mph S14.3 kmh S 15.7 mph25.3 kmh 29.61 in1002.7 mb 0.00 in0.0 mm 0.00 in0.0 mm 0.06 in1.5 mm
07:20 PM 60.4°F15.8°C 55.6°F13.1°C 84% 8.3 mph S13.4 kmh S 16.6 mph26.7 kmh 29.61 in1002.7 mb 0.00 in0.0 mm 0.00 in0.0 mm 0.06 in1.5 mm
07:25 PM 60.6°F15.9°C 55.8°F13.2°C 84% 8.5 mph SSW13.7 kmh SSW 16.6 mph26.7 kmh 29.61 in1002.7 mb 0.00 in0.0 mm 0.00 in0.0 mm 0.06 in1.5 mm
07:30 PM 60.6°F15.9°C 55.8°F13.2°C 84% 9.4 mph S15.1 kmh S 15.9 mph25.6 kmh 29.61 in1002.7 mb 0.00 in0.0 mm 0.00 in0.0 mm 0.06 in1.5 mm
07:35 PM 60.6°F15.9°C 56.1°F13.4°C 85% 9.2 mph S14.8 kmh S 15.9 mph25.6 kmh 29.60 in1002.4 mb 0.00 in0.0 mm 0.00 in0.0 mm 0.06 in1.5 mm
07:40 PM 60.6°F15.9°C 56.1°F13.4°C 85% 9.8 mph S15.8 kmh S 15.9 mph25.6 kmh 29.60 in1002.4 mb 0.00 in0.0 mm 0.00 in0.0 mm 0.06 in1.5 mm
07:45 PM 60.6°F15.9°C 56.1°F13.4°C 85% 6.5 mph S10.5 kmh S 15.9 mph25.6 kmh 29.61 in1002.7 mb 0.00 in0.0 mm 0.00 in0.0 mm 0.06 in1.5 mm
07:50 PM 60.6°F15.9°C 56.1°F13.4°C 85% 16.6 mph SSW26.7 kmh SSW 20.8 mph33.5 kmh 29.61 in1002.7 mb 0.00 in0.0 mm 0.00 in0.0 mm 0.06 in1.5 mm
07:55 PM 60.4°F15.8°C 55.6°F13.1°C 84% 6.5 mph SSW10.5 kmh SSW 20.8 mph33.5 kmh 29.61 in1002.7 mb 0.00 in0.0 mm 0.00 in0.0 mm 0.06 in1.5 mm
08:00 PM 60.4°F15.8°C 55.6°F13.1°C 84% 10.7 mph S17.2 kmh S 18.1 mph29.1 kmh 29.60 in1002.4 mb 0.00 in0.0 mm 0.00 in0.0 mm 0.06 in1.5 mm
08:05 PM 60.6°F15.9°C 56.1°F13.4°C 85% 9.6 mph SSW15.4 kmh SSW 20.4 mph32.8 kmh 29.61 in1002.7 mb 0.00 in0.0 mm 0.00 in0.0 mm 0.06 in1.5 mm
08:10 PM 60.6°F15.9°C 56.1°F13.4°C 85% 8.9 mph SSW14.3 kmh SSW 20.4 mph32.8 kmh 29.61 in1002.7 mb 0.00 in0.0 mm 0.00 in0.0 mm 0.06 in1.5 mm
08:15 PM 60.6°F15.9°C 56.1°F13.4°C 85% 16.1 mph SSW25.9 kmh SSW 19.9 mph32.0 kmh 29.61 in1002.7 mb 0.00 in0.0 mm 0.00 in0.0 mm 0.06 in1.5 mm
08:20 PM 60.6°F15.9°C 56.1°F13.4°C 85% 5.6 mph SSW9.0 kmh SSW 23.9 mph38.5 kmh 29.61 in1002.7 mb 0.00 in0.0 mm 0.00 in0.0 mm 0.06 in1.5 mm
08:25 PM 60.6°F15.9°C 56.1°F13.4°C 85% 15.7 mph SSW25.3 kmh SSW 23.9 mph38.5 kmh 29.61 in1002.7 mb 0.00 in0.0 mm 0.00 in0.0 mm 0.06 in1.5 mm
08:30 PM 60.6°F15.9°C 55.8°F13.2°C 84% 16.1 mph SSW25.9 kmh SSW 20.6 mph33.2 kmh 29.61 in1002.7 mb 0.00 in0.0 mm 0.00 in0.0 mm 0.06 in1.5 mm
08:35 PM 60.6°F15.9°C 55.8°F13.2°C 84% 10.5 mph SSW16.9 kmh SSW 22.8 mph36.7 kmh 29.60 in1002.4 mb 0.00 in0.0 mm 0.00 in0.0 mm 0.06 in1.5 mm
08:40 PM 60.6°F15.9°C 55.8°F13.2°C 84% 15.9 mph SSW25.6 kmh SSW 22.8 mph36.7 kmh 29.60 in1002.4 mb 0.00 in0.0 mm 0.00 in0.0 mm 0.06 in1.5 mm
08:45 PM 60.6°F15.9°C 55.8°F13.2°C 84% 19.7 mph SSW31.7 kmh SSW 23.5 mph37.8 kmh 29.60 in1002.4 mb 0.00 in0.0 mm 0.00 in0.0 mm 0.06 in1.5 mm
08:50 PM 60.6°F15.9°C 55.8°F13.2°C 84% 8.9 mph SSW14.3 kmh SSW 23.5 mph37.8 kmh 29.60 in1002.4 mb 0.00 in0.0 mm 0.00 in0.0 mm 0.06 in1.5 mm
08:55 PM 60.6°F15.9°C 55.8°F13.2°C 84% 11.0 mph S17.7 kmh S 22.1 mph35.6 kmh 29.60 in1002.4 mb 0.00 in0.0 mm 0.00 in0.0 mm 0.06 in1.5 mm
09:00 PM 60.6°F15.9°C 56.1°F13.4°C 85% 10.5 mph S16.9 kmh S 19.5 mph31.4 kmh 29.61 in1002.7 mb 0.00 in0.0 mm 0.00 in0.0 mm 0.06 in1.5 mm
09:05 PM 60.6°F15.9°C 56.1°F13.4°C 85% 10.7 mph SSW17.2 kmh SSW 18.3 mph29.5 kmh 29.60 in1002.4 mb 0.00 in0.0 mm 0.00 in0.0 mm 0.06 in1.5 mm
09:10 PM 60.6°F15.9°C 56.1°F13.4°C 85% 14.3 mph SSW23.0 kmh SSW 19.5 mph31.4 kmh 29.60 in1002.4 mb 0.00 in0.0 mm 0.00 in0.0 mm 0.06 in1.5 mm
09:15 PM 60.6°F15.9°C 55.8°F13.2°C 84% 11.2 mph SSW18.0 kmh SSW 19.5 mph31.4 kmh 29.61 in1002.7 mb 0.00 in0.0 mm 0.00 in0.0 mm 0.06 in1.5 mm
09:20 PM 60.6°F15.9°C 55.8°F13.2°C 84% 6.3 mph SSW10.1 kmh SSW 18.6 mph29.9 kmh 29.61 in1002.7 mb 0.00 in0.0 mm 0.00 in0.0 mm 0.06 in1.5 mm
09:25 PM 60.6°F15.9°C 55.8°F13.2°C 84% 9.2 mph SSW14.8 kmh SSW 18.6 mph29.9 kmh 29.61 in1002.7 mb 0.00 in0.0 mm 0.00 in0.0 mm 0.06 in1.5 mm
09:30 PM 60.6°F15.9°C 55.8°F13.2°C 84% 7.4 mph SSW11.9 kmh SSW 24.6 mph39.6 kmh 29.61 in1002.7 mb 0.00 in0.0 mm 0.00 in0.0 mm 0.06 in1.5 mm
09:35 PM 60.6°F15.9°C 55.8°F13.2°C 84% 7.2 mph S11.6 kmh S 24.6 mph39.6 kmh 29.61 in1002.7 mb 0.00 in0.0 mm 0.00 in0.0 mm 0.06 in1.5 mm
09:40 PM 60.6°F15.9°C 55.8°F13.2°C 84% 4.5 mph S7.2 kmh S 19.7 mph31.7 kmh 29.61 in1002.7 mb 0.00 in0.0 mm 0.00 in0.0 mm 0.06 in1.5 mm
09:45 PM 60.6°F15.9°C 55.8°F13.2°C 84% 7.4 mph S11.9 kmh S 16.6 mph26.7 kmh 29.61 in1002.7 mb 0.00 in0.0 mm 0.00 in0.0 mm 0.06 in1.5 mm
09:50 PM 60.6°F15.9°C 55.8°F13.2°C 84% 5.4 mph S8.7 kmh S 18.6 mph29.9 kmh 29.61 in1002.7 mb 0.00 in0.0 mm 0.00 in0.0 mm 0.06 in1.5 mm
09:55 PM 60.6°F15.9°C 55.8°F13.2°C 84% 15.9 mph S25.6 kmh S 19.5 mph31.4 kmh 29.60 in1002.4 mb 0.00 in0.0 mm 0.00 in0.0 mm 0.06 in1.5 mm
10:00 PM 60.6°F15.9°C 55.8°F13.2°C 84% 10.3 mph SSW16.6 kmh SSW 21.0 mph33.8 kmh 29.60 in1002.4 mb 0.00 in0.0 mm 0.00 in0.0 mm 0.06 in1.5 mm
10:05 PM 60.6°F15.9°C 55.5°F13.1°C 83% 21.3 mph SSW34.3 kmh SSW 21.9 mph35.2 kmh 29.60 in1002.4 mb 0.00 in0.0 mm 0.00 in0.0 mm 0.06 in1.5 mm
10:10 PM 60.4°F15.8°C 55.3°F12.9°C 83% 13.2 mph SSW21.2 kmh SSW 23.9 mph38.5 kmh 29.61 in1002.7 mb 0.00 in0.0 mm 0.00 in0.0 mm 0.06 in1.5 mm
10:15 PM 60.4°F15.8°C 55.3°F12.9°C 83% 6.9 mph SSW11.1 kmh SSW 23.9 mph38.5 kmh 29.61 in1002.7 mb 0.00 in0.0 mm 0.00 in0.0 mm 0.06 in1.5 mm
10:20 PM 60.4°F15.8°C 55.3°F12.9°C 83% 10.5 mph S16.9 kmh S 20.6 mph33.2 kmh 29.61 in1002.7 mb 0.00 in0.0 mm 0.00 in0.0 mm 0.06 in1.5 mm
10:25 PM 60.4°F15.8°C 55.6°F13.1°C 84% 6.9 mph S11.1 kmh S 18.6 mph29.9 kmh 29.61 in1002.7 mb 0.00 in0.0 mm 0.00 in0.0 mm 0.06 in1.5 mm
10:30 PM 60.4°F15.8°C 55.6°F13.1°C 84% 3.4 mph S5.5 kmh S 18.6 mph29.9 kmh 29.61 in1002.7 mb 0.00 in0.0 mm 0.00 in0.0 mm 0.06 in1.5 mm
10:35 PM 60.4°F15.8°C 55.6°F13.1°C 84% 7.2 mph S11.6 kmh S 13.6 mph21.9 kmh 29.60 in1002.4 mb 0.00 in0.0 mm 0.00 in0.0 mm 0.06 in1.5 mm
10:40 PM 60.1°F15.6°C 54.9°F12.7°C 83% 8.7 mph S14.0 kmh S 13.4 mph21.6 kmh 29.60 in1002.4 mb 0.00 in0.0 mm 0.00 in0.0 mm 0.06 in1.5 mm
10:45 PM 60.1°F15.6°C 54.9°F12.7°C 83% 18.1 mph S29.1 kmh S 18.8 mph30.3 kmh 29.60 in1002.4 mb 0.00 in0.0 mm 0.00 in0.0 mm 0.06 in1.5 mm
10:50 PM 60.1°F15.6°C 54.9°F12.7°C 83% 12.8 mph S20.6 kmh S 19.5 mph31.4 kmh 29.61 in1002.7 mb 0.00 in0.0 mm 0.00 in0.0 mm 0.06 in1.5 mm
10:55 PM 60.1°F15.6°C 55.3°F12.9°C 84% 6.0 mph SSW9.7 kmh SSW 19.5 mph31.4 kmh 29.61 in1002.7 mb 0.00 in0.0 mm 0.00 in0.0 mm 0.06 in1.5 mm
11:00 PM 60.1°F15.6°C 55.3°F12.9°C 84% 3.6 mph SSW5.8 kmh SSW 17.2 mph27.7 kmh 29.60 in1002.4 mb 0.00 in0.0 mm 0.00 in0.0 mm 0.06 in1.5 mm
11:05 PM 60.1°F15.6°C 54.9°F12.7°C 83% 11.6 mph S18.7 kmh S 14.5 mph23.3 kmh 29.59 in1002.0 mb 0.00 in0.0 mm 0.00 in0.0 mm 0.06 in1.5 mm
11:10 PM 60.1°F15.6°C 54.9°F12.7°C 83% 12.5 mph S20.1 kmh S 20.6 mph33.2 kmh 29.59 in1002.0 mb 0.00 in0.0 mm 0.00 in0.0 mm 0.06 in1.5 mm
11:15 PM 60.1°F15.6°C 54.6°F12.6°C 82% 11.2 mph S18.0 kmh S 20.6 mph33.2 kmh 29.59 in1002.0 mb 0.00 in0.0 mm 0.00 in0.0 mm 0.06 in1.5 mm
11:20 PM 60.3°F15.7°C 54.8°F12.7°C 82% 13.9 mph S22.4 kmh S 21.7 mph34.9 kmh 29.59 in1002.0 mb 0.00 in0.0 mm 0.00 in0.0 mm 0.06 in1.5 mm
11:25 PM 60.4°F15.8°C 55.3°F12.9°C 83% 15.2 mph S24.5 kmh S 21.7 mph34.9 kmh 29.59 in1002.0 mb 0.00 in0.0 mm 0.00 in0.0 mm 0.06 in1.5 mm
11:30 PM 60.4°F15.8°C 55.6°F13.1°C 84% 8.9 mph S14.3 kmh S 21.7 mph34.9 kmh 29.59 in1002.0 mb 0.00 in0.0 mm 0.00 in0.0 mm 0.06 in1.5 mm
11:35 PM 60.6°F15.9°C 55.8°F13.2°C 84% 15.4 mph S24.8 kmh S 20.6 mph33.2 kmh 29.59 in1002.0 mb 0.00 in0.0 mm 0.00 in0.0 mm 0.06 in1.5 mm
11:40 PM 60.6°F15.9°C 55.8°F13.2°C 84% 8.1 mph S13.0 kmh S 19.7 mph31.7 kmh 29.59 in1002.0 mb 0.00 in0.0 mm 0.00 in0.0 mm 0.06 in1.5 mm
11:45 PM 60.4°F15.8°C 55.6°F13.1°C 84% 8.5 mph S13.7 kmh S 19.7 mph31.7 kmh 29.59 in1002.0 mb 0.00 in0.0 mm 0.00 in0.0 mm 0.06 in1.5 mm
11:50 PM 60.4°F15.8°C 55.6°F13.1°C 84% 18.1 mph S29.1 kmh S 23.9 mph38.5 kmh 29.58 in1001.7 mb 0.00 in0.0 mm 0.00 in0.0 mm 0.06 in1.5 mm
11:55 PM 60.6°F15.9°C 55.8°F13.2°C 84% 13.6 mph S21.9 kmh S 23.9 mph38.5 kmh 29.58 in1001.7 mb 0.00 in0.0 mm 0.00 in0.0 mm 0.06 in1.5 mm